createdAt,value
2018-01-11T00:01:16.960Z,22.37
2018-01-11T00:03:45.344Z,22.93
2018-01-11T00:06:13.706Z,22.57
2018-01-11T00:08:42.056Z,20.47
2018-01-11T00:11:10.478Z,21.07
2018-01-11T00:13:38.826Z,20.20
2018-01-11T00:16:07.810Z,20.80
2018-01-11T00:18:36.181Z,18.60
2018-01-11T00:21:04.620Z,16.63
2018-01-11T00:23:33.010Z,16.23
2018-01-11T00:26:01.365Z,15.40
2018-01-11T00:28:29.732Z,16.50
2018-01-11T00:30:58.107Z,16.90
2018-01-11T00:33:26.474Z,16.77
2018-01-11T00:35:54.893Z,18.23
2018-01-11T00:38:23.262Z,16.87
2018-01-11T00:40:51.628Z,15.53
2018-01-11T00:43:19.995Z,14.00
2018-01-11T00:45:48.358Z,15.63
2018-01-11T00:48:16.761Z,16.63
2018-01-11T00:50:45.130Z,15.77
2018-01-11T00:53:13.488Z,17.33
2018-01-11T00:55:41.863Z,16.27
2018-01-11T00:58:10.284Z,16.23
2018-01-11T01:00:38.692Z,17.03
2018-01-11T01:03:07.066Z,16.33
2018-01-11T01:05:35.446Z,15.10
2018-01-11T01:08:03.811Z,17.57
2018-01-11T01:10:32.175Z,17.33
2018-01-11T01:13:00.569Z,18.60
2018-01-11T01:15:28.936Z,17.07
2018-01-11T01:17:57.307Z,18.27
2018-01-11T01:20:25.681Z,19.00
2018-01-11T01:22:54.049Z,16.70
2018-01-11T01:25:22.442Z,18.93
2018-01-11T01:27:50.811Z,17.40
2018-01-11T01:30:19.212Z,17.33
2018-01-11T01:32:47.573Z,17.33
2018-01-11T01:35:15.952Z,15.17
2018-01-11T01:37:44.379Z,15.93
2018-01-11T01:40:12.736Z,18.03
2018-01-11T01:42:41.104Z,16.70
2018-01-11T01:45:09.562Z,15.73
2018-01-11T01:47:37.967Z,16.90
2018-01-11T01:50:06.379Z,17.43
2018-01-11T01:52:34.749Z,19.60
2018-01-11T01:55:03.129Z,18.37
2018-01-11T01:57:31.501Z,19.80
2018-01-11T01:59:59.909Z,19.67
2018-01-11T02:02:28.308Z,18.10
2018-01-11T02:04:56.667Z,19.00
2018-01-11T02:07:25.044Z,17.53
2018-01-11T02:09:53.426Z,19.63
2018-01-11T02:12:21.784Z,17.70
2018-01-11T02:14:50.175Z,17.53
2018-01-11T02:17:18.553Z,17.30
2018-01-11T02:19:46.925Z,16.70
2018-01-11T02:22:15.285Z,16.80
2018-01-11T02:24:43.659Z,16.77
2018-01-11T02:27:12.063Z,15.53
2018-01-11T02:29:40.423Z,14.70
2018-01-11T02:32:08.813Z,13.87
2018-01-11T02:34:37.180Z,14.23
2018-01-11T02:37:05.600Z,14.60
2018-01-11T02:39:33.970Z,13.63
2018-01-11T02:42:02.334Z,14.23
2018-01-11T02:44:30.694Z,13.90
2018-01-11T02:46:59.060Z,14.83
2018-01-11T02:49:27.468Z,15.87
2018-01-11T02:51:55.827Z,16.67
2018-01-11T02:54:24.244Z,15.83
2018-01-11T02:56:52.614Z,16.53
2018-01-11T02:59:20.983Z,15.53
2018-01-11T03:01:49.379Z,15.50
2018-01-11T03:04:17.752Z,14.03
2018-01-11T03:06:46.107Z,12.93
2018-01-11T03:09:14.479Z,14.13
2018-01-11T03:11:42.858Z,13.73
2018-01-11T03:14:11.260Z,13.23
2018-01-11T03:16:39.661Z,13.40
2018-01-11T03:19:08.021Z,13.17
2018-01-11T03:21:36.432Z,13.90
2018-01-11T03:24:04.805Z,14.13
2018-01-11T03:26:33.233Z,12.97
2018-01-11T03:29:01.602Z,13.90
2018-01-11T03:31:29.958Z,13.00
2018-01-11T03:33:58.335Z,12.80
2018-01-11T03:36:26.683Z,13.60
2018-01-11T03:38:55.085Z,12.70
2018-01-11T03:41:23.443Z,14.50
2018-01-11T03:43:51.811Z,12.97
2018-01-11T03:46:20.199Z,14.07
2018-01-11T03:48:48.581Z,15.53
2018-01-11T03:51:16.985Z,13.90
2018-01-11T03:53:45.370Z,16.60
2018-01-11T03:58:57.715Z,18.17
2018-01-11T04:01:26.131Z,17.57
2018-01-11T04:03:54.553Z,17.73
2018-01-11T04:06:22.959Z,17.80
2018-01-11T04:08:51.331Z,18.27
2018-01-11T04:11:19.700Z,16.83
2018-01-11T04:13:48.063Z,15.80
2018-01-11T04:16:16.468Z,16.40
2018-01-11T04:18:44.838Z,18.03
2018-01-11T04:21:13.330Z,18.30
2018-01-11T04:23:41.735Z,16.50
2018-01-11T04:26:10.105Z,14.10
2018-01-11T04:28:38.506Z,13.40
2018-01-11T04:31:06.884Z,13.17
2018-01-11T04:33:35.273Z,14.17
2018-01-11T04:36:03.632Z,13.60
2018-01-11T04:38:32.005Z,12.20
2018-01-11T04:41:00.406Z,11.27
2018-01-11T04:43:28.781Z,11.70
2018-01-11T04:45:57.159Z,10.40
2018-01-11T04:48:25.615Z,11.27
2018-01-11T04:50:54.009Z,11.40
2018-01-11T04:53:22.453Z,11.70
2018-01-11T04:55:50.841Z,14.40
2018-01-11T04:58:19.190Z,14.80
2018-01-11T05:00:53.479Z,13.90
2018-01-11T05:03:21.846Z,13.30
2018-01-11T05:05:50.285Z,11.20
2018-01-11T05:08:18.649Z,13.50
2018-01-11T05:10:46.999Z,11.40
2018-01-11T05:13:15.378Z,12.67
2018-01-11T05:15:43.746Z,13.57
2018-01-11T05:18:12.149Z,12.77
2018-01-11T05:20:40.515Z,12.10
2018-01-11T05:23:08.876Z,12.47
2018-01-11T05:25:37.234Z,12.50
2018-01-11T05:28:05.616Z,12.63
2018-01-11T05:30:34.017Z,11.23
2018-01-11T05:33:02.426Z,9.70
2018-01-11T05:35:30.799Z,10.30
2018-01-11T05:37:59.150Z,8.97
2018-01-11T05:40:27.501Z,9.77
2018-01-11T05:42:55.880Z,9.93
2018-01-11T05:45:24.248Z,9.70
2018-01-11T05:47:52.612Z,9.97
2018-01-11T05:50:21.020Z,9.60
2018-01-11T05:55:33.440Z,9.13
2018-01-11T05:58:01.796Z,9.70
2018-01-11T06:00:30.215Z,9.17
2018-01-11T06:02:58.564Z,9.63
2018-01-11T06:05:26.983Z,9.60
2018-01-11T06:07:55.363Z,10.13
2018-01-11T06:10:23.724Z,10.30
2018-01-11T06:12:52.132Z,11.73
2018-01-11T06:15:20.503Z,11.27
2018-01-11T06:17:48.886Z,10.00
2018-01-11T06:20:17.246Z,11.33
2018-01-11T06:22:45.608Z,11.93
2018-01-11T06:25:13.991Z,11.60
2018-01-11T06:27:42.385Z,11.80
2018-01-11T06:30:10.741Z,11.50
2018-01-11T06:32:39.119Z,8.40
2018-01-11T06:35:07.487Z,9.17
2018-01-11T06:37:35.883Z,10.20
2018-01-11T06:40:04.282Z,9.63
2018-01-11T06:42:32.788Z,10.83
2018-01-11T06:45:01.184Z,10.07
2018-01-11T06:47:29.560Z,10.30
2018-01-11T06:49:57.965Z,8.93
2018-01-11T06:52:26.387Z,9.57
2018-01-11T06:54:54.769Z,9.30
2018-01-11T06:57:23.131Z,8.43
2018-01-11T06:59:51.534Z,8.93
2018-01-11T07:02:19.923Z,8.70
2018-01-11T07:04:48.282Z,8.53
2018-01-11T07:07:16.626Z,8.83
2018-01-11T07:09:44.976Z,10.20
2018-01-11T07:12:13.457Z,9.13
2018-01-11T07:14:41.876Z,10.20
2018-01-11T07:17:10.256Z,9.00
2018-01-11T07:19:38.616Z,10.90
2018-01-11T07:22:06.983Z,9.57
2018-01-11T07:24:35.337Z,10.20
2018-01-11T07:27:03.836Z,10.40
2018-01-11T07:29:32.195Z,9.70
2018-01-11T07:32:00.580Z,10.40
2018-01-11T07:34:28.946Z,9.20
2018-01-11T07:36:57.355Z,10.93
2018-01-11T07:39:25.719Z,10.00
2018-01-11T07:41:54.072Z,10.83
2018-01-11T07:44:22.443Z,9.03
2018-01-11T07:46:50.818Z,9.20
2018-01-11T07:49:19.201Z,9.30
2018-01-11T07:51:47.564Z,8.90
2018-01-11T07:54:15.957Z,9.43
2018-01-11T07:56:44.339Z,9.60
2018-01-11T07:59:12.687Z,10.37
2018-01-11T08:01:41.155Z,10.67
2018-01-11T08:04:09.500Z,9.80
2018-01-11T08:06:38.037Z,10.13
2018-01-11T08:09:06.382Z,10.53
2018-01-11T08:11:34.768Z,9.37
2018-01-11T08:14:03.148Z,9.40
2018-01-11T08:16:31.641Z,10.10
2018-01-11T08:19:00.903Z,9.70
2018-01-11T08:21:29.795Z,9.10
2018-01-11T08:23:58.273Z,9.50
2018-01-11T08:26:26.688Z,10.73
2018-01-11T08:28:55.093Z,11.07
2018-01-11T08:31:23.517Z,12.20
2018-01-11T08:33:51.912Z,13.33
2018-01-11T08:36:20.290Z,11.37
2018-01-11T08:38:49.015Z,12.03
2018-01-11T08:41:17.483Z,10.20
2018-01-11T08:43:45.898Z,11.40
2018-01-11T08:46:14.260Z,11.17
2018-01-11T08:48:42.646Z,10.57
2018-01-11T08:51:11.143Z,11.00
2018-01-11T08:53:39.515Z,9.17
2018-01-11T08:56:07.877Z,8.17
2018-01-11T08:58:36.244Z,7.30
2018-01-11T09:01:04.609Z,8.47
2018-01-11T09:03:33.878Z,9.70
2018-01-11T09:06:02.281Z,9.00
2018-01-11T09:08:30.657Z,9.07
2018-01-11T09:10:59.069Z,7.20
2018-01-11T09:13:27.436Z,8.13
2018-01-11T09:15:55.856Z,6.00
2018-01-11T09:18:24.255Z,5.67
2018-01-11T09:20:52.601Z,4.80
2018-01-11T09:23:20.986Z,3.90
2018-01-11T09:25:49.363Z,6.37
2018-01-11T09:28:17.726Z,7.77
2018-01-11T09:30:46.142Z,7.77
2018-01-11T09:33:14.500Z,10.37
2018-01-11T09:35:42.876Z,12.07
2018-01-11T09:38:11.256Z,10.83
2018-01-11T09:40:39.628Z,12.23
2018-01-11T09:43:08.028Z,10.63
2018-01-11T09:45:36.391Z,8.20
2018-01-11T09:48:04.787Z,8.73
2018-01-11T09:50:33.181Z,8.60
2018-01-11T09:53:01.527Z,7.60
2018-01-11T09:55:29.921Z,7.07
2018-01-11T09:57:58.283Z,6.70
2018-01-11T10:00:26.716Z,6.17
2018-01-11T10:02:55.102Z,6.57
2018-01-11T10:05:23.458Z,6.07
2018-01-11T10:07:51.864Z,4.77
2018-01-11T10:10:20.233Z,4.93
2018-01-11T10:12:48.610Z,3.30
2018-01-11T10:15:16.991Z,2.90
2018-01-11T10:17:45.357Z,2.30
2018-01-11T10:20:13.785Z,2.57
2018-01-11T10:22:42.128Z,2.97
2018-01-11T10:25:10.492Z,2.83
2018-01-11T10:27:38.857Z,3.40
2018-01-11T10:30:07.246Z,2.90
2018-01-11T10:32:35.648Z,3.87
2018-01-11T10:35:04.106Z,4.30
2018-01-11T10:37:32.483Z,3.50
2018-01-11T10:40:00.835Z,3.97
2018-01-11T10:42:29.275Z,3.50
2018-01-11T10:44:57.661Z,2.90
2018-01-11T10:47:26.158Z,0.90
2018-01-11T10:49:54.747Z,0.87
2018-01-11T10:52:23.153Z,1.00
2018-01-11T10:54:51.511Z,1.77
2018-01-11T10:57:19.961Z,2.50
2018-01-11T10:59:48.385Z,2.13
2018-01-11T11:02:22.316Z,1.97
2018-01-11T11:04:51.180Z,1.90
2018-01-11T11:07:19.532Z,1.60
2018-01-11T11:09:47.947Z,1.97
2018-01-11T11:12:16.295Z,2.30
2018-01-11T11:14:44.674Z,2.13
2018-01-11T11:17:13.029Z,2.30
2018-01-11T11:19:41.379Z,2.37
2018-01-11T11:22:09.724Z,2.43
2018-01-11T11:24:38.074Z,1.50
2018-01-11T11:27:06.588Z,1.70
2018-01-11T11:29:34.946Z,1.80
2018-01-11T11:32:03.398Z,2.20
2018-01-11T11:34:31.818Z,2.00
2018-01-11T11:37:00.193Z,1.83
2018-01-11T11:39:28.581Z,3.30
2018-01-11T11:41:56.940Z,1.77
2018-01-11T11:44:25.307Z,2.00
2018-01-11T11:46:53.664Z,2.40
2018-01-11T11:49:22.020Z,2.37
2018-01-11T11:51:50.395Z,2.97
2018-01-11T11:54:18.750Z,2.20
2018-01-11T11:56:47.117Z,2.50
2018-01-11T11:59:15.468Z,2.60
2018-01-11T12:01:43.832Z,3.57
2018-01-11T12:04:12.240Z,2.30
2018-01-11T12:06:40.606Z,2.60
2018-01-11T12:09:08.987Z,2.37
2018-01-11T12:11:37.354Z,2.00
2018-01-11T12:14:05.734Z,2.70
2018-01-11T12:16:34.176Z,2.30
2018-01-11T12:19:02.481Z,2.40
2018-01-11T12:21:30.831Z,3.30
2018-01-11T12:23:59.220Z,2.70
2018-01-11T12:26:27.619Z,2.60
2018-01-11T12:28:55.969Z,3.30
2018-01-11T12:31:24.322Z,3.77
2018-01-11T12:33:52.677Z,2.87
2018-01-11T12:36:21.087Z,3.40
2018-01-11T12:38:50.551Z,2.47
2018-01-11T12:41:18.937Z,2.20
2018-01-11T12:43:47.300Z,2.80
2018-01-11T12:46:15.657Z,3.17
2018-01-11T12:48:44.056Z,2.80
2018-01-11T12:51:12.466Z,2.50
2018-01-11T12:53:40.827Z,2.93
2018-01-11T12:56:09.167Z,3.10
2018-01-11T12:58:37.535Z,2.60
2018-01-11T13:01:05.935Z,2.40
2018-01-11T13:03:34.300Z,2.10
2018-01-11T13:06:02.667Z,2.20
2018-01-11T13:08:31.056Z,2.20
2018-01-11T13:10:59.469Z,2.63
2018-01-11T13:13:27.929Z,2.53
2018-01-11T13:15:56.287Z,2.23
2018-01-11T13:18:24.637Z,2.20
2018-01-11T13:20:53.002Z,2.67
2018-01-11T13:23:21.384Z,2.27
2018-01-11T13:25:49.744Z,2.53
2018-01-11T13:28:18.100Z,3.13
2018-01-11T13:30:46.499Z,2.97
2018-01-11T13:33:14.883Z,2.57
2018-01-11T13:35:44.165Z,3.50
2018-01-11T13:38:12.563Z,3.10
2018-01-11T13:40:40.933Z,3.73
2018-01-11T13:43:09.298Z,4.60
2018-01-11T13:45:37.673Z,4.43
2018-01-11T13:48:06.057Z,4.53
2018-01-11T13:50:34.485Z,3.60
2018-01-11T13:53:02.879Z,3.30
2018-01-11T13:55:31.238Z,2.80
2018-01-11T13:57:59.611Z,2.90
2018-01-11T14:00:28.036Z,3.67
2018-01-11T14:02:56.538Z,3.70
2018-01-11T14:05:24.897Z,3.43
2018-01-11T14:07:53.256Z,3.30
2018-01-11T14:10:21.643Z,3.70
2018-01-11T14:12:50.056Z,3.77
2018-01-11T14:15:18.426Z,3.40
2018-01-11T14:17:46.789Z,3.43
2018-01-11T14:20:15.156Z,3.63
2018-01-11T14:22:43.533Z,4.20
2018-01-11T14:25:11.941Z,3.60
2018-01-11T14:27:40.356Z,3.50
2018-01-11T14:30:08.710Z,3.23
2018-01-11T14:32:37.074Z,3.10
2018-01-11T14:35:05.431Z,2.57
2018-01-11T14:37:33.771Z,2.40
2018-01-11T14:40:02.173Z,3.23
2018-01-11T14:42:30.536Z,2.80
2018-01-11T14:44:58.888Z,3.20
2018-01-11T14:47:27.271Z,2.90
2018-01-11T14:49:55.779Z,3.33
2018-01-11T14:52:24.158Z,3.37
2018-01-11T14:54:52.542Z,3.07
2018-01-11T14:57:20.903Z,4.10
2018-01-11T14:59:49.250Z,5.50
2018-01-11T15:02:17.630Z,3.00
2018-01-11T15:04:46.100Z,2.63
2018-01-11T15:07:15.297Z,2.30
2018-01-11T15:09:43.642Z,2.93
2018-01-11T15:12:11.988Z,3.00
2018-01-11T15:14:40.359Z,3.30
2018-01-11T15:17:08.844Z,3.30
2018-01-11T15:19:37.199Z,4.13
2018-01-11T15:22:05.570Z,3.90
2018-01-11T15:24:34.074Z,4.87
2018-01-11T15:27:02.418Z,6.03
2018-01-11T15:29:30.798Z,6.53
2018-01-11T15:31:59.252Z,5.93
2018-01-11T15:34:27.592Z,4.60
2018-01-11T15:36:55.967Z,5.67
2018-01-11T15:39:24.352Z,5.03
2018-01-11T15:41:52.710Z,5.17
2018-01-11T15:44:21.064Z,6.00
2018-01-11T15:46:49.419Z,6.23
2018-01-11T15:49:17.798Z,7.70
2018-01-11T15:51:46.155Z,6.80
2018-01-11T15:54:14.509Z,5.30
2018-01-11T15:56:42.885Z,6.40
2018-01-11T15:59:11.232Z,6.60
2018-01-11T16:01:39.615Z,7.00
2018-01-11T16:04:07.980Z,7.70
2018-01-11T16:06:36.332Z,8.00
2018-01-11T16:09:04.732Z,9.03
2018-01-11T16:11:33.139Z,10.20
2018-01-11T16:14:01.568Z,9.57
2018-01-11T16:16:30.059Z,11.27
2018-01-11T16:18:58.452Z,12.53
2018-01-11T16:21:26.816Z,12.00
2018-01-11T16:23:55.251Z,13.03
2018-01-11T16:26:23.636Z,13.23
2018-01-11T16:28:52.043Z,12.73
2018-01-11T16:31:20.412Z,13.30
2018-01-11T16:33:48.800Z,11.37
2018-01-11T16:36:17.174Z,15.00
2018-01-11T16:38:45.569Z,13.53
2018-01-11T16:41:13.948Z,13.47
2018-01-11T16:43:42.308Z,14.23
2018-01-11T16:46:10.744Z,14.80
2018-01-11T16:48:39.126Z,16.00
2018-01-11T16:51:07.575Z,15.87
2018-01-11T16:53:35.936Z,14.70
2018-01-11T16:56:04.340Z,14.30
2018-01-11T16:58:32.707Z,15.40
2018-01-11T17:01:01.074Z,15.57
2018-01-11T17:03:29.520Z,12.60
2018-01-11T17:05:57.885Z,15.40
2018-01-11T17:08:26.304Z,14.70
2018-01-11T17:10:54.655Z,12.50
2018-01-11T17:13:23.059Z,13.07
2018-01-11T17:15:51.585Z,14.40
2018-01-11T17:18:19.946Z,12.70
2018-01-11T17:20:48.316Z,13.27
2018-01-11T17:23:17.612Z,12.00
2018-01-11T17:25:45.970Z,11.40
2018-01-11T17:28:14.392Z,12.73
2018-01-11T17:30:42.824Z,13.30
2018-01-11T17:33:11.392Z,12.30
2018-01-11T17:35:39.757Z,12.43
2018-01-11T17:38:08.196Z,11.70
2018-01-11T17:40:36.579Z,13.53
2018-01-11T17:43:04.959Z,13.07
2018-01-11T17:45:33.353Z,12.70
2018-01-11T17:48:01.720Z,14.20
2018-01-11T17:50:30.082Z,12.30
2018-01-11T17:52:58.503Z,12.43
2018-01-11T17:55:26.858Z,13.20
2018-01-11T17:57:55.299Z,12.30
2018-01-11T18:00:23.715Z,13.00
2018-01-11T18:02:52.105Z,12.30
2018-01-11T18:05:20.596Z,12.53
2018-01-11T18:07:48.977Z,11.97
2018-01-11T18:10:17.341Z,13.03
2018-01-11T18:12:45.749Z,11.07
2018-01-11T18:15:14.100Z,11.57
2018-01-11T18:17:42.632Z,10.93
2018-01-11T18:20:11.012Z,9.40
2018-01-11T18:22:39.378Z,9.67
2018-01-11T18:25:07.745Z,9.77
2018-01-11T18:27:36.111Z,8.93
2018-01-11T18:30:04.488Z,9.67
2018-01-11T18:32:32.854Z,10.20
2018-01-11T18:35:01.282Z,9.73
2018-01-11T18:37:29.646Z,11.00
2018-01-11T18:39:58.004Z,10.23
2018-01-11T18:42:26.375Z,11.07
2018-01-11T18:44:54.740Z,10.73
2018-01-11T18:47:23.144Z,10.37
2018-01-11T18:49:51.515Z,10.87
2018-01-11T18:52:19.900Z,11.57
2018-01-11T18:54:48.264Z,13.83
2018-01-11T18:57:16.629Z,12.07
2018-01-11T18:59:45.036Z,13.57
2018-01-11T19:02:13.420Z,14.27
2018-01-11T19:04:41.796Z,17.10
2018-01-11T19:07:10.179Z,17.17
2018-01-11T19:09:38.558Z,15.57
2018-01-11T19:12:06.980Z,15.17
2018-01-11T19:14:35.344Z,15.10
2018-01-11T19:17:03.738Z,18.90
2018-01-11T19:19:32.107Z,21.30
2018-01-11T19:22:00.487Z,17.93
2018-01-11T19:24:28.994Z,19.33
2018-01-11T19:26:57.400Z,19.47
2018-01-11T19:29:25.772Z,17.93
2018-01-11T19:31:54.151Z,17.40
2018-01-11T19:34:22.516Z,19.40
2018-01-11T19:36:50.916Z,18.90
2018-01-11T19:39:19.288Z,21.17
2018-01-11T19:41:47.671Z,24.67
2018-01-11T19:44:16.037Z,23.00
2018-01-11T19:46:44.420Z,21.77
2018-01-11T19:49:12.816Z,20.20
2018-01-11T19:51:41.172Z,21.43
2018-01-11T19:54:09.570Z,20.67
2018-01-11T19:56:38.083Z,21.23
2018-01-11T19:59:06.504Z,19.93
2018-01-11T20:01:34.940Z,21.63
2018-01-11T20:04:03.516Z,21.40
2018-01-11T20:06:31.893Z,20.40
2018-01-11T20:09:00.258Z,19.23
2018-01-11T20:11:28.639Z,21.80
2018-01-11T20:13:57.136Z,20.90
2018-01-11T20:16:25.597Z,19.47
2018-01-11T20:18:53.967Z,18.83
2018-01-11T20:21:22.374Z,19.60
2018-01-11T20:23:50.736Z,21.30
2018-01-11T20:26:19.144Z,21.50
2018-01-11T20:28:47.516Z,19.40
2018-01-11T20:31:15.916Z,21.40
2018-01-11T20:33:44.279Z,20.00
2018-01-11T20:36:12.654Z,19.23
2018-01-11T20:38:41.067Z,17.90
2018-01-11T20:41:09.447Z,18.00
2018-01-11T20:43:37.817Z,20.10
2018-01-11T20:46:06.189Z,18.93
2018-01-11T20:48:34.560Z,20.40
2018-01-11T20:51:02.959Z,18.40
2018-01-11T20:53:31.331Z,20.10
2018-01-11T20:55:59.716Z,20.33
2018-01-11T20:58:28.090Z,17.90
2018-01-11T21:00:56.480Z,17.53
2018-01-11T21:03:24.977Z,18.33
2018-01-11T21:05:53.364Z,20.13
2018-01-11T21:08:21.710Z,19.30
2018-01-11T21:10:50.078Z,20.20
2018-01-11T21:13:18.441Z,19.93
2018-01-11T21:15:46.854Z,22.40
2018-01-11T21:18:15.204Z,23.27
2018-01-11T21:20:43.568Z,21.47
2018-01-11T21:23:11.932Z,22.10
2018-01-11T21:25:40.295Z,23.03
2018-01-11T21:28:08.696Z,22.63
2018-01-11T21:30:37.060Z,24.40
2018-01-11T21:33:05.535Z,26.57
2018-01-11T21:35:34.044Z,22.60
2018-01-11T21:38:02.451Z,24.77
2018-01-11T21:40:30.842Z,25.47
2018-01-11T21:42:59.233Z,23.83
2018-01-11T21:45:27.597Z,22.60
2018-01-11T21:47:55.956Z,23.83
2018-01-11T21:50:24.419Z,24.27
2018-01-11T21:52:52.794Z,25.97
2018-01-11T21:55:21.187Z,23.97
2018-01-11T21:57:49.559Z,24.63
2018-01-11T22:00:17.961Z,24.80
2018-01-11T22:02:46.327Z,25.30
2018-01-11T22:05:14.687Z,24.30
2018-01-11T22:07:43.086Z,25.57
2018-01-11T22:10:11.482Z,25.63
2018-01-11T22:12:39.855Z,25.60
2018-01-11T22:15:08.227Z,25.40
2018-01-11T22:17:36.599Z,24.67
2018-01-11T22:20:05.007Z,24.30
2018-01-11T22:22:33.431Z,24.47
2018-01-11T22:25:01.787Z,23.90
2018-01-11T22:27:30.168Z,23.07
2018-01-11T22:29:58.542Z,21.40
2018-01-11T22:32:26.927Z,23.20
2018-01-11T22:34:55.274Z,25.10
2018-01-11T22:37:23.652Z,25.63
2018-01-11T22:39:52.005Z,27.90
2018-01-11T22:42:20.375Z,25.10
2018-01-11T22:44:48.764Z,28.70
2018-01-11T22:47:17.130Z,29.83
2018-01-11T22:49:45.498Z,28.73
2018-01-11T22:52:13.869Z,30.37
2018-01-11T22:54:42.254Z,28.67
2018-01-11T22:57:10.650Z,29.50
2018-01-11T22:59:39.012Z,30.50
2018-01-11T23:02:07.376Z,32.27
2018-01-11T23:04:35.743Z,32.13
2018-01-11T23:07:04.116Z,33.00
2018-01-11T23:09:32.518Z,33.40
2018-01-11T23:12:00.880Z,29.90
2018-01-11T23:14:29.286Z,32.80
2018-01-11T23:16:57.632Z,26.77
2018-01-11T23:19:25.982Z,29.90
2018-01-11T23:21:54.379Z,32.17
2018-01-11T23:24:22.757Z,29.80
2018-01-11T23:26:51.131Z,28.77
2018-01-11T23:29:19.500Z,29.90
2018-01-11T23:31:47.890Z,28.93
2018-01-11T23:34:16.287Z,28.83
2018-01-11T23:36:44.737Z,31.10
2018-01-11T23:39:13.116Z,31.33
2018-01-11T23:41:41.489Z,32.27
2018-01-11T23:44:09.908Z,33.13
2018-01-11T23:46:38.318Z,31.53
2018-01-11T23:49:06.676Z,31.37
2018-01-11T23:51:35.048Z,33.10
2018-01-11T23:54:03.419Z,32.67
2018-01-11T23:56:31.772Z,32.73
2018-01-11T23:59:00.264Z,33.83
